createdAt,value
2022-07-28T00:00:08.711Z,9.747452
2022-07-28T00:01:08.635Z,9.747378
2022-07-28T00:02:08.716Z,9.747374
2022-07-28T00:03:08.671Z,9.747361
2022-07-28T00:04:08.614Z,9.747404
2022-07-28T00:05:08.609Z,9.747417
2022-07-28T00:06:08.598Z,9.747424
2022-07-28T00:07:08.619Z,9.747354
2022-07-28T00:08:08.580Z,9.747361
2022-07-28T00:09:08.585Z,9.747393
2022-07-28T00:10:08.568Z,9.747426
2022-07-28T00:11:08.551Z,9.747427
2022-07-28T00:12:08.579Z,9.747410
2022-07-28T00:13:08.542Z,9.747485
2022-07-28T00:14:08.540Z,9.747553
2022-07-28T00:15:08.526Z,9.747434
2022-07-28T00:16:08.538Z,9.747421
2022-07-28T00:17:08.534Z,9.747474
2022-07-28T00:18:08.501Z,9.747400
2022-07-28T00:19:08.499Z,9.747380
2022-07-28T00:20:08.489Z,9.747377
2022-07-28T00:21:08.475Z,9.747246
2022-07-28T00:22:08.502Z,9.747416
2022-07-28T00:23:08.464Z,9.747407
2022-07-28T00:24:08.456Z,9.747584
2022-07-28T00:25:08.445Z,9.747606
2022-07-28T00:26:08.447Z,9.747549
2022-07-28T00:27:08.459Z,9.747523
2022-07-28T00:28:08.427Z,9.747375
2022-07-28T00:29:08.424Z,9.747464
2022-07-28T00:30:08.414Z,9.747363
2022-07-28T00:31:09.857Z,9.747299
2022-07-28T00:32:08.494Z,9.747311
2022-07-28T00:33:08.392Z,9.747334
2022-07-28T00:34:08.378Z,9.747296
2022-07-28T00:35:08.839Z,9.747228
2022-07-28T00:36:10.302Z,9.747187
2022-07-28T00:37:08.384Z,9.747235
2022-07-28T00:38:09.348Z,9.747167
2022-07-28T00:39:08.343Z,9.747202
2022-07-28T00:40:08.337Z,9.747257
2022-07-28T00:41:08.326Z,9.747272
2022-07-28T00:42:08.346Z,9.747250
2022-07-28T00:43:08.312Z,9.747206
2022-07-28T00:44:08.305Z,9.747178
2022-07-28T00:45:08.294Z,9.747275
2022-07-28T00:46:08.415Z,9.747291
2022-07-28T00:47:08.284Z,9.747318
2022-07-28T00:48:08.309Z,9.747252
2022-07-28T00:49:08.331Z,9.747367
2022-07-28T00:50:08.257Z,9.747291
2022-07-28T00:51:08.248Z,9.747341
2022-07-28T00:52:08.241Z,9.747259
2022-07-28T00:53:08.785Z,9.747177
2022-07-28T00:54:08.230Z,9.747311
2022-07-28T00:55:08.222Z,9.747290
2022-07-28T00:56:08.211Z,9.747405
2022-07-28T00:57:08.203Z,9.747403
2022-07-28T00:58:08.218Z,9.747362
2022-07-28T00:59:08.186Z,9.747421
2022-07-28T01:00:08.182Z,9.747321
2022-07-28T01:01:08.176Z,9.747368
2022-07-28T01:02:08.309Z,9.747378
2022-07-28T01:03:08.215Z,9.747306
2022-07-28T01:04:08.154Z,9.747228
2022-07-28T01:05:08.146Z,9.747274
2022-07-28T01:06:08.133Z,9.747354
2022-07-28T01:07:08.130Z,9.747387
2022-07-28T01:08:08.145Z,9.747259
2022-07-28T01:09:08.104Z,9.747248
2022-07-28T01:10:08.102Z,9.747293
2022-07-28T01:11:08.101Z,9.747285
2022-07-28T01:12:08.089Z,9.747384
2022-07-28T01:13:08.102Z,9.747323
2022-07-28T01:14:08.077Z,9.747272
2022-07-28T01:15:08.068Z,9.747257
2022-07-28T01:16:08.073Z,9.747278
2022-07-28T01:17:08.050Z,9.747274
2022-07-28T01:18:39.978Z,9.747311
2022-07-28T01:19:08.035Z,9.747420
2022-07-28T01:20:08.038Z,9.747312
2022-07-28T01:21:08.036Z,9.747355
2022-07-28T01:22:08.059Z,9.747346
2022-07-28T01:23:08.033Z,9.747367
2022-07-28T01:24:07.998Z,9.747366
2022-07-28T01:25:07.991Z,9.747375
2022-07-28T01:26:07.985Z,9.747300
2022-07-28T01:27:07.986Z,9.747286
2022-07-28T01:28:07.996Z,9.747246
2022-07-28T01:29:07.963Z,9.747285
2022-07-28T01:30:07.959Z,9.747337
2022-07-28T01:31:08.001Z,9.747378
2022-07-28T01:32:07.931Z,9.747365
2022-07-28T01:33:07.955Z,9.747371
2022-07-28T01:34:07.924Z,9.747376
2022-07-28T01:35:07.921Z,9.747359
2022-07-28T01:36:07.908Z,9.747409
2022-07-28T01:37:07.898Z,9.747403
2022-07-28T01:38:07.918Z,9.747400
2022-07-28T01:39:07.883Z,9.747348
2022-07-28T01:40:07.876Z,9.747387
2022-07-28T01:41:07.868Z,9.747308
2022-07-28T01:42:07.860Z,9.747304
2022-07-28T01:43:08.473Z,9.747385
2022-07-28T01:44:07.843Z,9.747380
2022-07-28T01:45:07.848Z,9.747409
2022-07-28T01:46:07.850Z,9.747250
2022-07-28T01:47:07.824Z,9.747299
2022-07-28T01:48:07.844Z,9.747368
2022-07-28T01:49:07.875Z,9.747371
2022-07-28T01:50:07.803Z,9.747344
2022-07-28T01:51:07.790Z,9.747464
2022-07-28T01:52:07.780Z,9.747484
2022-07-28T01:53:07.805Z,9.747540
2022-07-28T01:54:07.765Z,9.747414
2022-07-28T01:55:07.784Z,9.747458
2022-07-28T01:56:07.752Z,9.747432
2022-07-28T01:57:07.749Z,9.747450
2022-07-28T01:58:07.770Z,9.747473
2022-07-28T01:59:07.757Z,9.747412
2022-07-28T02:00:07.726Z,9.747335
2022-07-28T02:01:07.803Z,9.747404
2022-07-28T02:02:07.816Z,9.747373
2022-07-28T02:03:07.747Z,9.747438
2022-07-28T02:04:07.691Z,9.747607
2022-07-28T02:05:07.746Z,9.747504
2022-07-28T02:06:07.684Z,9.747410
2022-07-28T02:07:07.679Z,9.747561
2022-07-28T02:08:07.697Z,9.747699
2022-07-28T02:09:07.663Z,9.747614
2022-07-28T02:10:07.660Z,9.747489
2022-07-28T02:11:09.938Z,9.747452
2022-07-28T02:12:07.639Z,9.747581
2022-07-28T02:13:07.640Z,9.747611
2022-07-28T02:14:07.648Z,9.747549
2022-07-28T02:15:07.625Z,9.747678
2022-07-28T02:16:07.717Z,9.747718
2022-07-28T02:17:07.597Z,9.747643
2022-07-28T02:18:07.587Z,9.747646
2022-07-28T02:19:07.609Z,9.747487
2022-07-28T02:20:07.577Z,9.747397
2022-07-28T02:21:07.574Z,9.747451
2022-07-28T02:22:07.572Z,9.747611
2022-07-28T02:23:07.556Z,9.747576
2022-07-28T02:24:07.582Z,9.747602
2022-07-28T02:25:07.545Z,9.747665
2022-07-28T02:26:07.537Z,9.747408
2022-07-28T02:27:07.521Z,9.747512
2022-07-28T02:28:07.518Z,9.747443
2022-07-28T02:29:07.534Z,9.747410
2022-07-28T02:30:07.504Z,9.747541
2022-07-28T02:31:07.567Z,9.747479
2022-07-28T02:32:27.248Z,9.747506
2022-07-28T02:33:08.486Z,9.747430
2022-07-28T02:34:07.728Z,9.747398
2022-07-28T02:35:08.796Z,9.747437
2022-07-28T02:36:07.458Z,9.747453
2022-07-28T02:37:07.448Z,9.747448
2022-07-28T02:38:07.450Z,9.747541
2022-07-28T02:39:07.472Z,9.747601
2022-07-28T02:40:07.443Z,9.747477
2022-07-28T02:41:07.419Z,9.747530
2022-07-28T02:42:07.412Z,9.747458
2022-07-28T02:43:07.424Z,9.747535
2022-07-28T02:44:07.419Z,9.747514
2022-07-28T02:45:07.388Z,9.747339
2022-07-28T02:46:07.420Z,9.747423
2022-07-28T02:47:07.372Z,9.747451
2022-07-28T02:48:07.363Z,9.747541
2022-07-28T02:49:07.489Z,9.747451
2022-07-28T02:50:07.351Z,9.747599
2022-07-28T02:51:07.335Z,9.747480
2022-07-28T02:52:07.332Z,9.747470
2022-07-28T02:53:15.005Z,9.747450
2022-07-28T02:54:08.346Z,9.747373
2022-07-28T02:55:07.313Z,9.747415
2022-07-28T02:56:07.295Z,9.747519
2022-07-28T02:57:07.285Z,9.747521
2022-07-28T02:58:07.287Z,9.747382
2022-07-28T02:59:07.300Z,9.747420
2022-07-28T03:00:07.274Z,9.747268
2022-07-28T03:01:07.343Z,9.747499
2022-07-28T03:02:07.259Z,9.747433
2022-07-28T03:03:07.241Z,9.747453
2022-07-28T03:04:07.303Z,9.747473
2022-07-28T03:05:08.682Z,9.747513
2022-07-28T03:06:07.215Z,9.747490
2022-07-28T03:07:07.217Z,9.747545
2022-07-28T03:08:07.213Z,9.747432
2022-07-28T03:09:07.224Z,9.747274
2022-07-28T03:10:07.193Z,9.747339
2022-07-28T03:11:07.183Z,9.747451
2022-07-28T03:12:07.178Z,9.747389
2022-07-28T03:13:07.256Z,9.747406
2022-07-28T03:14:07.190Z,9.747531
2022-07-28T03:15:07.154Z,9.747517
2022-07-28T03:16:07.147Z,9.747456
2022-07-28T03:17:07.213Z,9.747467
2022-07-28T03:18:07.135Z,9.747390
2022-07-28T03:19:07.159Z,9.747391
2022-07-28T03:20:07.123Z,9.747375
2022-07-28T03:21:07.107Z,9.747529
2022-07-28T03:22:10.449Z,9.747615
2022-07-28T03:23:07.093Z,9.747555
2022-07-28T03:24:07.084Z,9.747499
2022-07-28T03:25:07.095Z,9.747418
2022-07-28T03:26:07.069Z,9.747514
2022-07-28T03:27:07.063Z,9.747541
2022-07-28T03:28:07.055Z,9.747521
2022-07-28T03:29:07.048Z,9.747445
2022-07-28T03:30:07.072Z,9.747485
2022-07-28T03:31:07.092Z,9.747485
2022-07-28T03:32:07.026Z,9.747491
2022-07-28T03:33:07.022Z,9.747515
2022-07-28T03:34:07.010Z,9.747416
2022-07-28T03:35:07.034Z,9.747498
2022-07-28T03:36:07.000Z,9.747586
2022-07-28T03:37:06.989Z,9.747541
2022-07-28T03:38:06.981Z,9.747554
2022-07-28T03:39:06.967Z,9.747520
2022-07-28T03:40:06.994Z,9.747680
2022-07-28T03:41:06.957Z,9.747565
2022-07-28T03:42:06.951Z,9.747456
2022-07-28T03:43:06.946Z,9.747364
2022-07-28T03:44:06.946Z,9.747453
2022-07-28T03:45:06.955Z,9.747415
2022-07-28T03:46:12.701Z,9.747501
2022-07-28T03:47:08.910Z,9.747452
2022-07-28T03:48:06.900Z,9.747474
2022-07-28T03:49:06.982Z,9.747527
2022-07-28T03:50:06.913Z,9.747395
2022-07-28T03:51:06.883Z,9.747415
2022-07-28T03:52:06.866Z,9.747457
2022-07-28T03:53:06.862Z,9.747394
2022-07-28T03:54:06.861Z,9.747376
2022-07-28T03:55:06.871Z,9.747430
2022-07-28T03:56:06.841Z,9.747368
2022-07-28T03:57:06.836Z,9.747394
2022-07-28T03:58:06.826Z,9.747478
2022-07-28T03:59:06.822Z,9.747363
2022-07-28T04:00:09.702Z,9.747318
2022-07-28T04:01:08.690Z,9.747456
2022-07-28T04:02:06.814Z,9.747440
2022-07-28T04:03:35.061Z,9.747388
2022-07-28T04:04:07.782Z,9.747380
2022-07-28T04:05:06.802Z,9.747363
2022-07-28T04:06:06.752Z,9.747466
2022-07-28T04:07:07.758Z,9.747440
2022-07-28T04:08:06.745Z,9.747333
2022-07-28T04:09:06.759Z,9.747416
2022-07-28T04:10:06.771Z,9.747482
2022-07-28T04:11:06.732Z,9.747492
2022-07-28T04:12:06.716Z,9.747455
2022-07-28T04:13:06.714Z,9.747410
2022-07-28T04:14:06.712Z,9.747375
2022-07-28T04:15:06.720Z,9.747432
2022-07-28T04:16:06.687Z,9.747477
2022-07-28T04:17:06.724Z,9.747503
2022-07-28T04:18:06.669Z,9.747342
2022-07-28T04:19:06.666Z,9.747456
2022-07-28T04:20:06.683Z,9.747489
2022-07-28T04:21:06.646Z,9.747232
2022-07-28T04:22:06.645Z,9.747252
2022-07-28T04:23:06.641Z,9.747295
2022-07-28T04:24:06.636Z,9.747338
2022-07-28T04:25:06.656Z,9.747443
2022-07-28T04:26:06.619Z,9.747389
2022-07-28T04:27:06.607Z,9.747377
2022-07-28T04:28:06.598Z,9.747417
2022-07-28T04:29:06.594Z,9.747366
2022-07-28T04:30:06.614Z,9.747433
2022-07-28T04:31:06.627Z,9.747355
2022-07-28T04:32:06.568Z,9.747134
2022-07-28T04:33:06.564Z,9.747240
2022-07-28T04:34:06.592Z,9.747269
2022-07-28T04:35:06.576Z,9.747322
2022-07-28T04:36:06.535Z,9.747305
2022-07-28T04:37:06.531Z,9.747351
2022-07-28T04:38:06.523Z,9.747427
2022-07-28T04:39:06.512Z,9.747412
2022-07-28T04:40:06.511Z,9.747345
2022-07-28T04:41:06.527Z,9.747303
2022-07-28T04:42:06.507Z,9.747291
2022-07-28T04:43:06.486Z,9.747394
2022-07-28T04:44:06.481Z,9.747356
2022-07-28T04:45:06.467Z,9.747351
2022-07-28T04:46:06.526Z,9.747522
2022-07-28T04:47:06.574Z,9.747430
2022-07-28T04:48:06.444Z,9.747375
2022-07-28T04:49:06.631Z,9.747367
2022-07-28T04:50:06.429Z,9.747472
2022-07-28T04:51:06.444Z,9.747426
2022-07-28T04:52:06.417Z,9.747397
2022-07-28T04:53:06.403Z,9.747471
2022-07-28T04:54:06.401Z,9.747476
2022-07-28T04:55:06.391Z,9.747410
2022-07-28T04:56:06.409Z,9.747366
2022-07-28T04:57:10.393Z,9.747278
2022-07-28T04:58:07.364Z,9.747332
2022-07-28T04:59:06.362Z,9.747293
2022-07-28T05:00:06.354Z,9.747315
2022-07-28T05:01:06.448Z,9.747371
2022-07-28T05:02:06.342Z,9.747319
2022-07-28T05:03:06.329Z,9.747313
2022-07-28T05:04:06.380Z,9.747387
2022-07-28T05:05:06.357Z,9.747353
2022-07-28T05:06:06.332Z,9.747345
2022-07-28T05:07:11.949Z,9.747366
2022-07-28T05:08:07.293Z,9.747342
2022-07-28T05:09:06.290Z,9.747334
2022-07-28T05:10:06.274Z,9.747311
2022-07-28T05:11:06.308Z,9.747337
2022-07-28T05:12:06.271Z,9.747339
2022-07-28T05:13:06.259Z,9.747417
2022-07-28T05:14:06.253Z,9.747459
2022-07-28T05:15:06.239Z,9.747400
2022-07-28T05:16:06.302Z,9.747406
2022-07-28T05:17:06.236Z,9.747350
2022-07-28T05:18:06.241Z,9.747342
2022-07-28T05:19:06.214Z,9.747396
2022-07-28T05:20:06.229Z,9.747263
2022-07-28T05:21:06.214Z,9.747300
2022-07-28T05:22:07.186Z,9.747438
2022-07-28T05:23:06.177Z,9.747392
2022-07-28T05:24:06.168Z,9.747356
2022-07-28T05:25:06.164Z,9.747469
2022-07-28T05:26:06.186Z,9.747413
2022-07-28T05:27:06.145Z,9.747396
2022-07-28T05:28:06.174Z,9.747301
2022-07-28T05:29:06.135Z,9.747525
2022-07-28T05:30:06.125Z,9.747422
2022-07-28T05:31:06.146Z,9.747362
2022-07-28T05:32:16.679Z,9.747387
2022-07-28T05:33:08.102Z,9.747422
2022-07-28T05:34:06.103Z,9.747412
2022-07-28T05:35:06.091Z,9.747309
2022-07-28T05:36:06.106Z,9.747293
2022-07-28T05:37:06.074Z,9.747376
2022-07-28T05:38:10.528Z,9.747371
2022-07-28T05:39:08.074Z,9.747399
2022-07-28T05:40:06.047Z,9.747414
2022-07-28T05:41:06.065Z,9.747407
2022-07-28T05:42:06.055Z,9.747377
2022-07-28T05:43:06.032Z,9.747229
2022-07-28T05:44:06.025Z,9.747353
2022-07-28T05:45:16.748Z,9.747432
2022-07-28T05:46:07.096Z,9.747350
2022-07-28T05:47:06.044Z,9.747231
2022-07-28T05:48:05.996Z,9.747313
2022-07-28T05:49:06.035Z,9.747372
2022-07-28T05:50:05.980Z,9.747390
2022-07-28T05:51:05.994Z,9.747394
2022-07-28T05:52:05.963Z,9.747279
2022-07-28T05:53:05.950Z,9.747399
2022-07-28T05:54:05.943Z,9.747442
2022-07-28T05:55:05.935Z,9.747287
2022-07-28T05:56:05.959Z,9.747466
2022-07-28T05:57:05.913Z,9.747385
2022-07-28T05:58:05.907Z,9.747468
2022-07-28T05:59:05.901Z,9.747412
2022-07-28T06:00:05.893Z,9.747364
2022-07-28T06:01:05.971Z,9.747417
2022-07-28T06:02:05.941Z,9.747349
2022-07-28T06:03:05.873Z,9.747318
2022-07-28T06:04:27.256Z,9.747405
2022-07-28T06:05:07.859Z,9.747441
2022-07-28T06:06:14.604Z,9.747387
2022-07-28T06:07:06.839Z,9.747361
2022-07-28T06:08:05.829Z,9.747350
2022-07-28T06:09:05.830Z,9.747449
2022-07-28T06:10:05.813Z,9.747461
2022-07-28T06:11:05.845Z,9.747375
2022-07-28T06:12:05.806Z,9.747426
2022-07-28T06:13:05.802Z,9.747487
2022-07-28T06:14:05.793Z,9.747404
2022-07-28T06:15:05.777Z,9.747445
2022-07-28T06:16:09.664Z,9.747520
2022-07-28T06:17:07.890Z,9.747538
2022-07-28T06:18:05.755Z,9.747577
2022-07-28T06:19:05.749Z,9.747415
2022-07-28T06:20:05.734Z,9.747517
2022-07-28T06:21:05.783Z,9.747450
2022-07-28T06:22:05.741Z,9.747346
2022-07-28T06:23:05.742Z,9.747452
2022-07-28T06:24:05.714Z,9.747323
2022-07-28T06:25:05.709Z,9.747184
2022-07-28T06:26:05.695Z,9.747230
2022-07-28T06:27:06.664Z,9.747188
2022-07-28T06:28:05.681Z,9.747152
2022-07-28T06:29:05.678Z,9.747284
2022-07-28T06:30:05.661Z,9.747396
2022-07-28T06:31:05.708Z,9.747402
2022-07-28T06:32:05.739Z,9.747402
2022-07-28T06:33:05.666Z,9.747363
2022-07-28T06:34:05.638Z,9.747171
2022-07-28T06:35:05.633Z,9.747257
2022-07-28T06:36:05.623Z,9.747141
2022-07-28T06:37:05.660Z,9.747148
2022-07-28T06:38:05.606Z,9.747336
2022-07-28T06:39:05.608Z,9.747222
2022-07-28T06:40:05.600Z,9.747237
2022-07-28T06:41:05.586Z,9.747314
2022-07-28T06:42:05.608Z,9.747249
2022-07-28T06:43:05.572Z,9.747308
2022-07-28T06:44:05.562Z,9.747254
2022-07-28T06:45:05.555Z,9.747411
2022-07-28T06:46:05.553Z,9.747395
2022-07-28T06:47:05.646Z,9.747169
2022-07-28T06:48:05.528Z,9.747309
2022-07-28T06:49:05.597Z,9.747404
2022-07-28T06:50:05.520Z,9.747629
2022-07-28T06:51:06.533Z,9.747375
2022-07-28T06:52:05.530Z,9.747279
2022-07-28T06:53:05.501Z,9.747227
2022-07-28T06:54:10.741Z,9.747354
2022-07-28T06:55:07.481Z,9.747374
2022-07-28T06:56:05.518Z,9.747355
2022-07-28T06:57:05.491Z,9.747269
2022-07-28T06:58:05.462Z,9.747335
2022-07-28T06:59:05.448Z,9.747545
2022-07-28T07:00:05.442Z,9.747445
2022-07-28T07:01:05.486Z,9.747530
2022-07-28T07:02:05.446Z,9.747416
2022-07-28T07:03:09.602Z,9.747356
2022-07-28T07:04:05.471Z,9.747495
2022-07-28T07:05:05.415Z,9.747558
2022-07-28T07:06:05.398Z,9.747524
2022-07-28T07:07:14.737Z,9.747445
2022-07-28T07:08:06.377Z,9.747445
2022-07-28T07:09:05.368Z,9.747296
2022-07-28T07:10:05.369Z,9.747362
2022-07-28T07:11:05.365Z,9.747491
2022-07-28T07:12:05.380Z,9.747416
2022-07-28T07:13:05.351Z,9.747430
2022-07-28T07:14:05.345Z,9.747378
2022-07-28T07:15:05.332Z,9.747379
2022-07-28T07:16:05.400Z,9.747339
2022-07-28T07:17:05.346Z,9.747456
2022-07-28T07:18:39.276Z,9.747435
2022-07-28T07:19:06.866Z,9.747457
2022-07-28T07:20:05.290Z,9.747363
2022-07-28T07:21:05.281Z,9.747419
2022-07-28T07:22:05.304Z,9.747340
2022-07-28T07:23:05.272Z,9.747359
2022-07-28T07:24:05.267Z,9.747529
2022-07-28T07:25:05.258Z,9.747403
2022-07-28T07:26:05.252Z,9.747485
2022-07-28T07:27:05.269Z,9.747419
2022-07-28T07:28:05.237Z,9.747412
2022-07-28T07:29:05.221Z,9.747414
2022-07-28T07:30:05.221Z,9.747380
2022-07-28T07:31:05.258Z,9.747443
2022-07-28T07:32:10.366Z,9.747362
2022-07-28T07:33:08.011Z,9.747402
2022-07-28T07:34:05.194Z,9.747396
2022-07-28T07:35:05.183Z,9.747434
2022-07-28T07:36:05.179Z,9.747419
2022-07-28T07:37:05.194Z,9.747312
2022-07-28T07:38:05.170Z,9.747416
2022-07-28T07:39:05.158Z,9.747414
2022-07-28T07:40:05.143Z,9.747356
2022-07-28T07:41:05.135Z,9.747411
2022-07-28T07:42:05.156Z,9.747443
2022-07-28T07:43:05.126Z,9.747382
2022-07-28T07:44:05.112Z,9.747489
2022-07-28T07:45:05.103Z,9.747408
2022-07-28T07:46:05.144Z,9.747441
2022-07-28T07:47:05.160Z,9.747376
2022-07-28T07:48:05.079Z,9.747474
2022-07-28T07:49:05.161Z,9.747403
2022-07-28T07:50:05.069Z,9.747338
2022-07-28T07:51:05.055Z,9.747354
2022-07-28T07:52:05.079Z,9.747390
2022-07-28T07:53:05.042Z,9.747390
2022-07-28T07:54:05.041Z,9.747409
2022-07-28T07:55:05.034Z,9.747425
2022-07-28T07:56:05.017Z,9.747390
2022-07-28T07:57:05.042Z,9.747345
2022-07-28T07:58:05.007Z,9.747377
2022-07-28T07:59:04.999Z,9.747456
2022-07-28T08:00:04.996Z,9.747394
2022-07-28T08:01:04.979Z,9.747438
2022-07-28T08:02:05.062Z,9.747441
2022-07-28T08:03:11.015Z,9.747392
2022-07-28T08:04:05.981Z,9.747414
2022-07-28T08:05:05.011Z,9.747363
2022-07-28T08:06:04.946Z,9.747424
2022-07-28T08:07:04.932Z,9.747395
2022-07-28T08:08:05.098Z,9.747369
2022-07-28T08:09:04.921Z,9.747407
2022-07-28T08:10:04.911Z,9.747361
2022-07-28T08:11:04.901Z,9.747428
2022-07-28T08:12:04.899Z,9.747458
2022-07-28T08:13:04.903Z,9.747454
2022-07-28T08:14:05.881Z,9.747421
2022-07-28T08:15:04.876Z,9.747433
2022-07-28T08:16:04.911Z,9.747387
2022-07-28T08:17:04.858Z,9.747441
2022-07-28T08:18:04.873Z,9.747442
2022-07-28T08:19:04.841Z,9.747462
2022-07-28T08:20:04.831Z,9.747473
2022-07-28T08:21:04.828Z,9.747472
2022-07-28T08:22:04.816Z,9.747434
2022-07-28T08:23:04.833Z,9.747417
2022-07-28T08:24:04.804Z,9.747395
2022-07-28T08:25:04.793Z,9.747384
2022-07-28T08:26:04.789Z,9.747452
2022-07-28T08:27:04.785Z,9.747465
2022-07-28T08:28:04.798Z,9.747436
2022-07-28T08:29:04.768Z,9.747416
2022-07-28T08:30:04.777Z,9.747429
2022-07-28T08:31:04.786Z,9.747529
2022-07-28T08:32:04.743Z,9.747519
2022-07-28T08:33:04.758Z,9.747422
2022-07-28T08:34:04.730Z,9.747426
2022-07-28T08:35:31.502Z,9.747478
2022-07-28T08:36:06.707Z,9.747462
2022-07-28T08:37:04.706Z,9.747232
2022-07-28T08:38:04.721Z,9.747464
2022-07-28T08:39:04.684Z,9.747476
2022-07-28T08:40:04.675Z,9.747413
2022-07-28T08:41:04.676Z,9.747493
2022-07-28T08:42:04.670Z,9.747500
2022-07-28T08:43:04.687Z,9.747546
2022-07-28T08:44:04.651Z,9.747606
2022-07-28T08:45:04.662Z,9.747511
2022-07-28T08:46:04.733Z,9.747565
2022-07-28T08:47:04.697Z,9.747556
2022-07-28T08:48:09.095Z,9.747471
2022-07-28T08:49:06.680Z,9.747370
2022-07-28T08:50:04.605Z,9.747357
2022-07-28T08:51:04.609Z,9.747337
2022-07-28T08:52:04.586Z,9.747409
2022-07-28T08:53:04.613Z,9.747430
2022-07-28T08:54:04.579Z,9.747383
2022-07-28T08:55:04.570Z,9.747365
2022-07-28T08:56:04.561Z,9.747462
2022-07-28T08:57:04.554Z,9.747536
2022-07-28T08:58:04.579Z,9.747426
2022-07-28T08:59:04.541Z,9.747261
2022-07-28T09:00:04.529Z,9.747357
2022-07-28T09:01:04.530Z,9.747356
2022-07-28T09:02:04.545Z,9.747449
2022-07-28T09:03:04.644Z,9.747535
2022-07-28T09:04:04.503Z,9.747426
2022-07-28T09:05:04.511Z,9.747491
2022-07-28T09:06:04.503Z,9.747468
2022-07-28T09:07:04.472Z,9.747482
2022-07-28T09:08:04.493Z,9.747488
2022-07-28T09:09:04.462Z,9.747589
2022-07-28T09:10:04.459Z,9.747493
2022-07-28T09:11:04.446Z,9.747458
2022-07-28T09:12:04.441Z,9.747603
2022-07-28T09:13:04.452Z,9.747429
2022-07-28T09:14:04.414Z,9.747469
2022-07-28T09:15:04.411Z,9.747515
2022-07-28T09:16:04.457Z,9.747424
2022-07-28T09:17:05.237Z,9.747413
2022-07-28T09:18:04.418Z,9.747484
2022-07-28T09:19:04.387Z,9.747578
2022-07-28T09:20:10.403Z,9.747503
2022-07-28T09:21:06.370Z,9.747525
2022-07-28T09:22:04.360Z,9.747501
2022-07-28T09:23:04.382Z,9.747476
2022-07-28T09:24:04.345Z,9.747427
2022-07-28T09:25:04.339Z,9.747505
2022-07-28T09:26:09.967Z,9.747563
2022-07-28T09:27:06.322Z,9.747459
2022-07-28T09:28:04.313Z,9.747493
2022-07-28T09:29:04.344Z,9.747436
2022-07-28T09:30:04.304Z,9.747538
2022-07-28T09:31:04.322Z,9.747393
2022-07-28T09:32:04.344Z,9.747574
2022-07-28T09:33:04.278Z,9.747560
2022-07-28T09:34:04.298Z,9.747621
2022-07-28T09:35:04.266Z,9.747679
2022-07-28T09:36:04.263Z,9.747516
2022-07-28T09:37:04.243Z,9.747521
2022-07-28T09:38:04.244Z,9.747519
2022-07-28T09:39:04.273Z,9.747510
2022-07-28T09:40:04.311Z,9.747586
2022-07-28T09:41:04.222Z,9.747395
2022-07-28T09:42:04.215Z,9.747371
2022-07-28T09:43:04.208Z,9.747509
2022-07-28T09:44:04.226Z,9.747540
2022-07-28T09:45:21.803Z,9.747514
2022-07-28T09:46:06.349Z,9.747509
2022-07-28T09:47:04.344Z,9.747550
2022-07-28T09:48:04.292Z,9.747499
2022-07-28T09:49:04.370Z,9.747500
2022-07-28T09:50:04.198Z,9.747419
2022-07-28T09:51:04.143Z,9.747516
2022-07-28T09:52:04.152Z,9.747422
2022-07-28T09:53:04.127Z,9.747385
2022-07-28T09:54:04.138Z,9.747435
2022-07-28T09:55:04.109Z,9.747472
2022-07-28T09:56:04.103Z,9.747527
2022-07-28T09:57:04.087Z,9.747504
2022-07-28T09:58:04.084Z,9.747464
2022-07-28T09:59:05.099Z,9.747437
2022-07-28T10:00:04.068Z,9.747524
2022-07-28T10:01:04.086Z,9.747498
2022-07-28T10:02:04.099Z,9.747442
2022-07-28T10:03:04.083Z,9.747445
2022-07-28T10:04:04.089Z,9.747443
2022-07-28T10:05:04.048Z,9.747453
2022-07-28T10:06:04.022Z,9.747373
2022-07-28T10:07:04.022Z,9.747422
2022-07-28T10:08:04.012Z,9.747485
2022-07-28T10:09:04.032Z,9.747546
2022-07-28T10:10:03.987Z,9.747519
2022-07-28T10:11:03.990Z,9.747501
2022-07-28T10:12:03.968Z,9.747518
2022-07-28T10:13:04.967Z,9.747496
2022-07-28T10:14:03.984Z,9.747453
2022-07-28T10:15:03.949Z,9.747367
2022-07-28T10:16:03.967Z,9.747462
2022-07-28T10:17:06.145Z,9.747388
2022-07-28T10:18:04.929Z,9.747487
2022-07-28T10:19:03.952Z,9.747464
2022-07-28T10:20:03.918Z,9.747488
2022-07-28T10:21:03.911Z,9.747460
2022-07-28T10:22:03.901Z,9.747395
2022-07-28T10:23:03.892Z,9.747531
2022-07-28T10:24:03.916Z,9.747750
2022-07-28T10:25:03.882Z,9.747651
2022-07-28T10:26:03.874Z,9.747517
2022-07-28T10:27:04.860Z,9.747499
2022-07-28T10:28:03.859Z,9.747579
2022-07-28T10:29:03.876Z,9.747515
2022-07-28T10:30:03.838Z,9.747451
2022-07-28T10:31:03.874Z,9.747475
2022-07-28T10:32:03.826Z,9.747551
2022-07-28T10:33:03.818Z,9.747521
2022-07-28T10:34:03.813Z,9.747485
2022-07-28T10:35:03.840Z,9.747431
2022-07-28T10:36:03.793Z,9.747405
2022-07-28T10:37:03.786Z,9.747411
2022-07-28T10:38:03.783Z,9.747487
2022-07-28T10:39:03.782Z,9.747439
2022-07-28T10:40:09.382Z,9.747375
2022-07-28T10:41:05.751Z,9.747412
2022-07-28T10:42:03.754Z,9.747351
2022-07-28T10:43:03.735Z,9.747349
2022-07-28T10:44:03.728Z,9.747523
2022-07-28T10:45:03.750Z,9.747624
2022-07-28T10:46:06.014Z,9.747527
2022-07-28T10:47:04.748Z,9.747554
2022-07-28T10:48:03.700Z,9.747494
2022-07-28T10:49:03.917Z,9.747553
2022-07-28T10:50:03.712Z,9.747521
2022-07-28T10:51:03.678Z,9.747480
2022-07-28T10:52:08.653Z,9.747439
2022-07-28T10:53:04.661Z,9.747403
2022-07-28T10:54:03.659Z,9.747436
2022-07-28T10:55:03.678Z,9.747407
2022-07-28T10:56:03.641Z,9.747371
2022-07-28T10:57:04.853Z,9.747571
2022-07-28T10:58:11.727Z,9.747581
2022-07-28T10:59:05.038Z,9.747550
2022-07-28T11:00:12.764Z,9.747565
2022-07-28T11:01:06.616Z,9.747527
2022-07-28T11:02:04.693Z,9.747519
2022-07-28T11:03:13.333Z,9.747608
2022-07-28T11:04:04.582Z,9.747528
2022-07-28T11:05:03.602Z,9.747477
2022-07-28T11:06:03.563Z,9.747469
2022-07-28T11:07:03.558Z,9.747448
2022-07-28T11:08:03.554Z,9.747490
2022-07-28T11:09:03.540Z,9.747556
2022-07-28T11:10:03.561Z,9.747522
2022-07-28T11:11:08.744Z,9.747490
2022-07-28T11:12:04.519Z,9.747552
2022-07-28T11:13:04.084Z,9.747594
2022-07-28T11:14:03.504Z,9.747556
2022-07-28T11:15:18.360Z,9.747615
2022-07-28T11:16:04.491Z,9.747589
2022-07-28T11:17:03.548Z,9.747519
2022-07-28T11:18:03.479Z,9.747593
2022-07-28T11:19:04.780Z,9.747529
2022-07-28T11:20:30.542Z,9.747621
2022-07-28T11:21:05.459Z,9.747579
2022-07-28T11:22:03.456Z,9.747563
2022-07-28T11:23:03.446Z,9.747650
2022-07-28T11:24:03.439Z,9.747590
2022-07-28T11:25:18.928Z,9.747617
2022-07-28T11:26:04.447Z,9.747639
2022-07-28T11:27:04.208Z,9.747571
2022-07-28T11:28:04.417Z,9.747613
2022-07-28T11:29:03.400Z,9.747512
2022-07-28T11:30:03.398Z,9.747525
2022-07-28T11:31:03.522Z,9.747468
2022-07-28T11:32:03.381Z,9.747440
2022-07-28T11:33:03.373Z,9.747483
2022-07-28T11:34:03.364Z,9.747433
2022-07-28T11:35:03.356Z,9.747462
2022-07-28T11:36:03.380Z,9.747456
2022-07-28T11:37:03.343Z,9.747468
2022-07-28T11:38:03.642Z,9.747456
2022-07-28T11:39:03.326Z,9.747445
2022-07-28T11:40:03.321Z,9.747543
2022-07-28T11:41:03.339Z,9.747570
2022-07-28T11:42:03.313Z,9.747579
2022-07-28T11:43:03.313Z,9.747519
2022-07-28T11:44:03.292Z,9.747501